sensor_id;sensor_type;location;lat;lon;timestamp;temperature;humidity
6439;DHT22;3252;52.540;13.290;2023-04-19T00:46:21;6.60;97.00
6439;DHT22;3252;52.540;13.290;2023-04-19T00:49:14;6.50;97.10
6439;DHT22;3252;52.540;13.290;2023-04-19T01:00:11;6.50;97.30
6439;DHT22;3252;52.540;13.290;2023-04-19T02:01:31;5.80;98.20
6439;DHT22;3252;52.540;13.290;2023-04-19T02:03:56;5.70;98.30
6439;DHT22;3252;52.540;13.290;2023-04-19T02:06:21;5.70;98.40
6439;DHT22;3252;52.540;13.290;2023-04-19T02:08:29;5.80;98.50
6439;DHT22;3252;52.540;13.290;2023-04-19T03:39:26;4.60;99.90
6439;DHT22;3252;52.540;13.290;2023-04-19T03:42:19;4.60;99.90
6439;DHT22;3252;52.540;13.290;2023-04-19T03:48:07;4.40;99.90
6439;DHT22;3252;52.540;13.290;2023-04-19T04:27:18;4.20;99.90
6439;DHT22;3252;52.540;13.290;2023-04-19T04:29:43;4.20;99.90
6439;DHT22;3252;52.540;13.290;2023-04-19T04:32:18;4.20;99.90
6439;DHT22;3252;52.540;13.290;2023-04-19T04:34:47;4.20;99.90
6439;DHT22;3252;52.540;13.290;2023-04-19T04:37:06;4.20;99.90
6439;DHT22;3252;52.540;13.290;2023-04-19T04:39:32;4.20;99.90
6439;DHT22;3252;52.540;13.290;2023-04-19T04:41:45;4.30;99.90
6439;DHT22;3252;52.540;13.290;2023-04-19T04:44:12;4.30;99.90
6439;DHT22;3252;52.540;13.290;2023-04-19T04:46:31;4.40;99.90
6439;DHT22;3252;52.540;13.290;2023-04-19T04:48:54;4.50;99.90
6439;DHT22;3252;52.540;13.290;2023-04-19T04:51:07;4.50;99.90
6439;DHT22;3252;52.540;13.290;2023-04-19T04:53:26;4.50;99.90
6439;DHT22;3252;52.540;13.290;2023-04-19T04:56:21;4.60;99.90
6439;DHT22;3252;52.540;13.290;2023-04-19T05:59:47;7.70;99.90
6439;DHT22;3252;52.540;13.290;2023-04-19T06:04:34;7.80;99.90
6439;DHT22;3252;52.540;13.290;2023-04-19T06:36:28;9.20;97.70
6439;DHT22;3252;52.540;13.290;2023-04-19T06:38:50;8.70;99.40
6439;DHT22;3252;52.540;13.290;2023-04-19T06:46:37;8.60;99.50
6439;DHT22;3252;52.540;13.290;2023-04-19T06:49:30;8.90;98.60
6439;DHT22;3252;52.540;13.290;2023-04-19T06:51:37;8.60;98.10
6439;DHT22;3252;52.540;13.290;2023-04-19T06:53:46;8.50;98.60
6439;DHT22;3252;52.540;13.290;2023-04-19T06:55:57;8.50;99.20
6439;DHT22;3252;52.540;13.290;2023-04-19T06:58:03;8.80;99.50
6439;DHT22;3252;52.540;13.290;2023-04-19T07:00:09;9.20;98.10
6439;DHT22;3252;52.540;13.290;2023-04-19T07:02:14;9.60;96.90
6439;DHT22;3252;52.540;13.290;2023-04-19T07:04:16;10.10;95.30
6439;DHT22;3252;52.540;13.290;2023-04-19T07:06:18;10.10;93.40
6439;DHT22;3252;52.540;13.290;2023-04-19T07:08:22;9.70;93.60
6439;DHT22;3252;52.540;13.290;2023-04-19T07:10:24;9.60;94.50
6439;DHT22;3252;52.540;13.290;2023-04-19T07:12:27;9.40;95.60
6439;DHT22;3252;52.540;13.290;2023-04-19T07:14:29;9.40;95.40
6439;DHT22;3252;52.540;13.290;2023-04-19T07:16:32;9.50;94.30
6439;DHT22;3252;52.540;13.290;2023-04-19T07:18:34;9.70;94.10
6439;DHT22;3252;52.540;13.290;2023-04-19T07:20:36;9.70;94.10
6439;DHT22;3252;52.540;13.290;2023-04-19T07:22:39;9.90;93.40
6439;DHT22;3252;52.540;13.290;2023-04-19T07:24:42;10.10;92.60
6439;DHT22;3252;52.540;13.290;2023-04-19T07:26:44;10.70;93.30
6439;DHT22;3252;52.540;13.290;2023-04-19T07:28:47;11.00;90.70
6439;DHT22;3252;52.540;13.290;2023-04-19T07:30:49;11.30;88.70
6439;DHT22;3252;52.540;13.290;2023-04-19T07:32:51;11.00;79.90
6439;DHT22;3252;52.540;13.290;2023-04-19T07:34:53;11.10;80.90
6439;DHT22;3252;52.540;13.290;2023-04-19T07:36:55;11.10;79.50
6439;DHT22;3252;52.540;13.290;2023-04-19T07:38:58;11.10;74.90
6439;DHT22;3252;52.540;13.290;2023-04-19T07:41:02;10.90;75.00
6439;DHT22;3252;52.540;13.290;2023-04-19T07:43:05;11.00;80.60
6439;DHT22;3252;52.540;13.290;2023-04-19T07:45:08;10.80;70.90
6439;DHT22;3252;52.540;13.290;2023-04-19T07:47:10;11.00;71.00
6439;DHT22;3252;52.540;13.290;2023-04-19T07:49:12;10.80;74.70
6439;DHT22;3252;52.540;13.290;2023-04-19T07:51:15;11.10;70.30
6439;DHT22;3252;52.540;13.290;2023-04-19T07:53:19;11.30;70.30
6439;DHT22;3252;52.540;13.290;2023-04-19T07:55:21;11.40;69.30
6439;DHT22;3252;52.540;13.290;2023-04-19T07:57:25;11.50;67.90
6439;DHT22;3252;52.540;13.290;2023-04-19T07:59:27;11.90;63.80
6439;DHT22;3252;52.540;13.290;2023-04-19T08:01:30;11.90;61.20
6439;DHT22;3252;52.540;13.290;2023-04-19T08:03:33;12.30;61.20
6439;DHT22;3252;52.540;13.290;2023-04-19T08:05:35;12.70;59.90
6439;DHT22;3252;52.540;13.290;2023-04-19T08:07:37;12.00;60.40
6439;DHT22;3252;52.540;13.290;2023-04-19T08:09:39;12.10;62.20
6439;DHT22;3252;52.540;13.290;2023-04-19T08:11:42;12.30;64.50
6439;DHT22;3252;52.540;13.290;2023-04-19T08:13:45;11.70;63.40
6439;DHT22;3252;52.540;13.290;2023-04-19T08:15:47;12.60;64.90
6439;DHT22;3252;52.540;13.290;2023-04-19T08:17:49;13.70;56.20
6439;DHT22;3252;52.540;13.290;2023-04-19T08:19:51;14.10;53.40
6439;DHT22;3252;52.540;13.290;2023-04-19T08:21:54;14.50;49.80
6439;DHT22;3252;52.540;13.290;2023-04-19T08:23:56;13.90;48.60
6439;DHT22;3252;52.540;13.290;2023-04-19T08:25:58;14.50;49.30
6439;DHT22;3252;52.540;13.290;2023-04-19T08:28:01;14.50;47.50
6439;DHT22;3252;52.540;13.290;2023-04-19T08:30:06;14.20;48.20
6439;DHT22;3252;52.540;13.290;2023-04-19T08:32:11;13.90;48.50
6439;DHT22;3252;52.540;13.290;2023-04-19T08:34:13;14.30;48.90
6439;DHT22;3252;52.540;13.290;2023-04-19T08:36:15;14.00;48.30
6439;DHT22;3252;52.540;13.290;2023-04-19T08:38:17;14.60;49.40
6439;DHT22;3252;52.540;13.290;2023-04-19T08:40:20;14.30;48.30
6439;DHT22;3252;52.540;13.290;2023-04-19T08:42:22;14.60;47.10
6439;DHT22;3252;52.540;13.290;2023-04-19T08:44:25;14.70;48.20
6439;DHT22;3252;52.540;13.290;2023-04-19T08:46:30;15.20;47.10
6439;DHT22;3252;52.540;13.290;2023-04-19T08:48:33;14.10;45.50
6439;DHT22;3252;52.540;13.290;2023-04-19T08:50:38;14.30;46.10
6439;DHT22;3252;52.540;13.290;2023-04-19T08:52:41;14.80;45.10
6439;DHT22;3252;52.540;13.290;2023-04-19T08:54:43;14.80;45.00
6439;DHT22;3252;52.540;13.290;2023-04-19T08:56:47;15.70;45.80
6439;DHT22;3252;52.540;13.290;2023-04-19T08:58:49;15.30;44.20
6439;DHT22;3252;52.540;13.290;2023-04-19T09:00:52;15.10;44.40
6439;DHT22;3252;52.540;13.290;2023-04-19T09:02:56;14.70;45.30
6439;DHT22;3252;52.540;13.290;2023-04-19T09:04:59;14.70;45.40
6439;DHT22;3252;52.540;13.290;2023-04-19T09:07:01;13.50;46.10
6439;DHT22;3252;52.540;13.290;2023-04-19T09:09:15;13.20;47.50
6439;DHT22;3252;52.540;13.290;2023-04-19T09:11:19;12.80;48.20
6439;DHT22;3252;52.540;13.290;2023-04-19T09:13:24;12.20;49.80
6439;DHT22;3252;52.540;13.290;2023-04-19T09:15:35;11.90;53.50
6439;DHT22;3252;52.540;13.290;2023-04-19T09:17:39;11.70;56.90
6439;DHT22;3252;52.540;13.290;2023-04-19T09:19:46;11.80;56.40
6439;DHT22;3252;52.540;13.290;2023-04-19T09:21:49;11.90;54.60
6439;DHT22;3252;52.540;13.290;2023-04-19T09:23:52;13.60;50.50
6439;DHT22;3252;52.540;13.290;2023-04-19T09:25:56;14.20;48.70
6439;DHT22;3252;52.540;13.290;2023-04-19T09:28:09;15.10;46.50
6439;DHT22;3252;52.540;13.290;2023-04-19T09:30:12;15.80;45.00
6439;DHT22;3252;52.540;13.290;2023-04-19T09:32:15;15.90;44.80
6439;DHT22;3252;52.540;13.290;2023-04-19T09:34:18;14.70;43.10
6439;DHT22;3252;52.540;13.290;2023-04-19T09:36:30;14.60;43.50
6439;DHT22;3252;52.540;13.290;2023-04-19T09:38:45;13.50;45.20
6439;DHT22;3252;52.540;13.290;2023-04-19T09:40:47;13.10;46.20
6439;DHT22;3252;52.540;13.290;2023-04-19T09:42:50;13.10;47.60
6439;DHT22;3252;52.540;13.290;2023-04-19T09:44:56;14.00;46.70
6439;DHT22;3252;52.540;13.290;2023-04-19T09:46:58;14.80;45.40
6439;DHT22;3252;52.540;13.290;2023-04-19T09:49:18;14.80;45.00
6439;DHT22;3252;52.540;13.290;2023-04-19T09:51:21;15.40;43.20
6439;DHT22;3252;52.540;13.290;2023-04-19T09:53:25;15.80;43.10
6439;DHT22;3252;52.540;13.290;2023-04-19T09:55:28;16.80;42.50
6439;DHT22;3252;52.540;13.290;2023-04-19T09:57:32;17.90;40.10
6439;DHT22;3252;52.540;13.290;2023-04-19T09:59:34;18.40;39.70
6439;DHT22;3252;52.540;13.290;2023-04-19T10:01:38;19.50;37.90
6439;DHT22;3252;52.540;13.290;2023-04-19T10:03:43;19.10;36.30
6439;DHT22;3252;52.540;13.290;2023-04-19T10:05:45;18.70;36.30
6439;DHT22;3252;52.540;13.290;2023-04-19T10:07:48;17.80;36.40
6439;DHT22;3252;52.540;13.290;2023-04-19T10:09:54;18.20;37.20
6439;DHT22;3252;52.540;13.290;2023-04-19T10:11:58;17.40;37.30
6439;DHT22;3252;52.540;13.290;2023-04-19T10:14:03;16.80;38.90
6439;DHT22;3252;52.540;13.290;2023-04-19T10:16:06;16.90;38.50
6439;DHT22;3252;52.540;13.290;2023-04-19T10:18:09;16.40;39.40
6439;DHT22;3252;52.540;13.290;2023-04-19T10:20:19;16.70;41.90
6439;DHT22;3252;52.540;13.290;2023-04-19T10:22:24;16.20;39.80
6439;DHT22;3252;52.540;13.290;2023-04-19T10:24:26;14.80;40.60
6439;DHT22;3252;52.540;13.290;2023-04-19T10:27:10;14.20;41.80
6439;DHT22;3252;52.540;13.290;2023-04-19T10:29:12;13.50;42.30
6439;DHT22;3252;52.540;13.290;2023-04-19T10:31:16;13.20;43.30
6439;DHT22;3252;52.540;13.290;2023-04-19T10:33:24;13.20;44.30
6439;DHT22;3252;52.540;13.290;2023-04-19T10:35:33;13.80;43.40
6439;DHT22;3252;52.540;13.290;2023-04-19T10:37:38;15.20;43.80
6439;DHT22;3252;52.540;13.290;2023-04-19T10:39:43;16.50;41.10
6439;DHT22;3252;52.540;13.290;2023-04-19T10:41:57;16.00;40.40
6439;DHT22;3252;52.540;13.290;2023-04-19T10:44:11;16.30;41.60
6439;DHT22;3252;52.540;13.290;2023-04-19T10:46:15;16.20;41.70
6439;DHT22;3252;52.540;13.290;2023-04-19T10:48:39;15.90;40.70
6439;DHT22;3252;52.540;13.290;2023-04-19T10:50:59;16.50;42.50
6439;DHT22;3252;52.540;13.290;2023-04-19T10:55:49;14.80;42.20
6439;DHT22;3252;52.540;13.290;2023-04-19T10:58:01;13.70;43.90
6439;DHT22;3252;52.540;13.290;2023-04-19T11:00:21;13.70;45.30
6439;DHT22;3252;52.540;13.290;2023-04-19T11:02:27;13.90;45.00
6439;DHT22;3252;52.540;13.290;2023-04-19T11:07:14;13.10;46.00
6439;DHT22;3252;52.540;13.290;2023-04-19T11:09:21;12.60;46.90
6439;DHT22;3252;52.540;13.290;2023-04-19T11:11:23;12.60;48.80
6439;DHT22;3252;52.540;13.290;2023-04-19T11:13:27;12.50;47.80
6439;DHT22;3252;52.540;13.290;2023-04-19T11:15:30;12.30;49.00
6439;DHT22;3252;52.540;13.290;2023-04-19T11:17:32;12.20;49.40
6439;DHT22;3252;52.540;13.290;2023-04-19T11:19:37;12.30;53.30
6439;DHT22;3252;52.540;13.290;2023-04-19T11:21:39;12.10;51.10
6439;DHT22;3252;52.540;13.290;2023-04-19T11:23:41;12.20;51.40
6439;DHT22;3252;52.540;13.290;2023-04-19T11:25:44;12.50;49.50
6439;DHT22;3252;52.540;13.290;2023-04-19T11:27:49;12.80;49.70
6439;DHT22;3252;52.540;13.290;2023-04-19T11:29:52;12.70;49.40
6439;DHT22;3252;52.540;13.290;2023-04-19T11:31:55;12.80;49.00
6439;DHT22;3252;52.540;13.290;2023-04-19T11:33:57;12.90;49.10
6439;DHT22;3252;52.540;13.290;2023-04-19T11:36:00;12.90;48.60
6439;DHT22;3252;52.540;13.290;2023-04-19T11:38:03;13.10;49.40
6439;DHT22;3252;52.540;13.290;2023-04-19T11:40:06;12.90;49.40
6439;DHT22;3252;52.540;13.290;2023-04-19T11:42:16;12.80;50.50
6439;DHT22;3252;52.540;13.290;2023-04-19T11:44:19;12.60;50.00
6439;DHT22;3252;52.540;13.290;2023-04-19T11:46:21;12.50;50.60
6439;DHT22;3252;52.540;13.290;2023-04-19T11:48:25;12.40;49.10
6439;DHT22;3252;52.540;13.290;2023-04-19T11:50:32;12.60;49.50
6439;DHT22;3252;52.540;13.290;2023-04-19T11:52:34;12.70;51.60
6439;DHT22;3252;52.540;13.290;2023-04-19T11:54:36;12.80;50.00
6439;DHT22;3252;52.540;13.290;2023-04-19T11:57:01;12.70;52.10
6439;DHT22;3252;52.540;13.290;2023-04-19T11:59:08;12.40;51.50
6439;DHT22;3252;52.540;13.290;2023-04-19T12:01:12;12.20;52.10
6439;DHT22;3252;52.540;13.290;2023-04-19T12:03:14;12.20;51.60
6439;DHT22;3252;52.540;13.290;2023-04-19T12:05:18;12.30;52.80
6439;DHT22;3252;52.540;13.290;2023-04-19T12:07:20;12.30;51.60
6439;DHT22;3252;52.540;13.290;2023-04-19T12:09:23;12.20;51.10
6439;DHT22;3252;52.540;13.290;2023-04-19T12:11:41;12.30;52.20
6439;DHT22;3252;52.540;13.290;2023-04-19T12:13:43;12.30;51.40
6439;DHT22;3252;52.540;13.290;2023-04-19T12:15:46;12.40;51.80
6439;DHT22;3252;52.540;13.290;2023-04-19T12:17:56;12.50;51.70
6439;DHT22;3252;52.540;13.290;2023-04-19T12:19:58;12.30;51.90
6439;DHT22;3252;52.540;13.290;2023-04-19T12:22:09;12.30;51.00
6439;DHT22;3252;52.540;13.290;2023-04-19T12:24:13;12.30;52.50
6439;DHT22;3252;52.540;13.290;2023-04-19T12:26:15;12.60;53.10
6439;DHT22;3252;52.540;13.290;2023-04-19T12:28:17;12.90;52.90
6439;DHT22;3252;52.540;13.290;2023-04-19T12:30:20;12.90;51.20
6439;DHT22;3252;52.540;13.290;2023-04-19T12:32:22;12.90;52.60
6439;DHT22;3252;52.540;13.290;2023-04-19T12:34:24;13.00;53.40
6439;DHT22;3252;52.540;13.290;2023-04-19T12:36:26;12.80;51.00
6439;DHT22;3252;52.540;13.290;2023-04-19T12:38:31;12.90;53.90
6439;DHT22;3252;52.540;13.290;2023-04-19T12:40:33;13.00;55.20
6439;DHT22;3252;52.540;13.290;2023-04-19T12:42:35;12.80;51.50
6439;DHT22;3252;52.540;13.290;2023-04-19T12:44:37;12.70;53.40
6439;DHT22;3252;52.540;13.290;2023-04-19T12:46:39;12.60;51.60
6439;DHT22;3252;52.540;13.290;2023-04-19T12:48:41;12.40;50.20
6439;DHT22;3252;52.540;13.290;2023-04-19T12:50:44;12.40;51.70
6439;DHT22;3252;52.540;13.290;2023-04-19T12:52:46;12.50;50.20
6439;DHT22;3252;52.540;13.290;2023-04-19T12:54:50;12.50;50.90
6439;DHT22;3252;52.540;13.290;2023-04-19T12:56:52;12.60;50.20
6439;DHT22;3252;52.540;13.290;2023-04-19T12:58:54;12.60;50.10
6439;DHT22;3252;52.540;13.290;2023-04-19T13:00:56;12.50;50.50
6439;DHT22;3252;52.540;13.290;2023-04-19T13:02:58;12.50;48.90
6439;DHT22;3252;52.540;13.290;2023-04-19T13:05:01;12.70;48.60
6439;DHT22;3252;52.540;13.290;2023-04-19T13:07:04;13.00;49.10
6439;DHT22;3252;52.540;13.290;2023-04-19T13:09:07;13.20;47.60
6439;DHT22;3252;52.540;13.290;2023-04-19T13:11:11;13.40;47.90
6439;DHT22;3252;52.540;13.290;2023-04-19T13:13:13;13.60;46.50
6439;DHT22;3252;52.540;13.290;2023-04-19T13:15:17;13.50;44.80
6439;DHT22;3252;52.540;13.290;2023-04-19T13:17:19;13.70;46.30
6439;DHT22;3252;52.540;13.290;2023-04-19T13:19:21;13.80;45.20
6439;DHT22;3252;52.540;13.290;2023-04-19T13:21:24;13.80;44.30
6439;DHT22;3252;52.540;13.290;2023-04-19T13:23:27;13.60;43.10
6439;DHT22;3252;52.540;13.290;2023-04-19T13:25:29;13.40;42.00
6439;DHT22;3252;52.540;13.290;2023-04-19T13:27:32;13.30;42.10
6439;DHT22;3252;52.540;13.290;2023-04-19T13:29:34;13.30;42.20
6439;DHT22;3252;52.540;13.290;2023-04-19T13:31:37;13.50;42.30
6439;DHT22;3252;52.540;13.290;2023-04-19T13:33:39;13.70;44.20
6439;DHT22;3252;52.540;13.290;2023-04-19T13:35:41;13.70;43.40
6439;DHT22;3252;52.540;13.290;2023-04-19T13:37:44;13.50;43.40
6439;DHT22;3252;52.540;13.290;2023-04-19T13:39:47;13.80;47.60
6439;DHT22;3252;52.540;13.290;2023-04-19T13:41:50;13.30;42.70
6439;DHT22;3252;52.540;13.290;2023-04-19T13:43:53;12.90;43.00
6439;DHT22;3252;52.540;13.290;2023-04-19T13:45:56;12.70;43.60
6439;DHT22;3252;52.540;13.290;2023-04-19T13:47:58;12.90;48.20
6439;DHT22;3252;52.540;13.290;2023-04-19T13:50:00;13.10;45.50
6439;DHT22;3252;52.540;13.290;2023-04-19T13:52:04;13.20;47.10
6439;DHT22;3252;52.540;13.290;2023-04-19T13:54:07;13.30;47.40
6439;DHT22;3252;52.540;13.290;2023-04-19T13:56:09;12.80;44.60
6439;DHT22;3252;52.540;13.290;2023-04-19T13:58:12;12.30;45.10
6439;DHT22;3252;52.540;13.290;2023-04-19T14:00:17;12.50;46.20
6439;DHT22;3252;52.540;13.290;2023-04-19T14:02:19;12.30;46.40
6439;DHT22;3252;52.540;13.290;2023-04-19T14:04:21;12.10;47.90
6439;DHT22;3252;52.540;13.290;2023-04-19T14:06:24;11.90;47.80
6439;DHT22;3252;52.540;13.290;2023-04-19T14:08:26;11.90;48.40
6439;DHT22;3252;52.540;13.290;2023-04-19T14:10:28;11.80;48.30
6439;DHT22;3252;52.540;13.290;2023-04-19T14:12:30;11.70;49.20
6439;DHT22;3252;52.540;13.290;2023-04-19T14:14:33;11.80;49.70
6439;DHT22;3252;52.540;13.290;2023-04-19T14:16:37;11.80;49.40
6439;DHT22;3252;52.540;13.290;2023-04-19T14:18:39;11.90;49.70
6439;DHT22;3252;52.540;13.290;2023-04-19T14:20:41;12.00;49.80
6439;DHT22;3252;52.540;13.290;2023-04-19T14:22:45;12.00;51.10
6439;DHT22;3252;52.540;13.290;2023-04-19T14:24:47;12.00;50.40
6439;DHT22;3252;52.540;13.290;2023-04-19T14:26:49;12.10;51.90
6439;DHT22;3252;52.540;13.290;2023-04-19T14:28:52;12.10;50.50
6439;DHT22;3252;52.540;13.290;2023-04-19T14:30:54;12.10;49.90
6439;DHT22;3252;52.540;13.290;2023-04-19T14:32:58;12.00;49.90
6439;DHT22;3252;52.540;13.290;2023-04-19T14:35:00;12.00;50.50
6439;DHT22;3252;52.540;13.290;2023-04-19T14:37:03;12.00;51.00
6439;DHT22;3252;52.540;13.290;2023-04-19T14:39:05;11.90;50.80
6439;DHT22;3252;52.540;13.290;2023-04-19T14:41:10;11.80;50.60
6439;DHT22;3252;52.540;13.290;2023-04-19T14:43:14;11.80;51.40
6439;DHT22;3252;52.540;13.290;2023-04-19T14:45:16;11.70;52.50
6439;DHT22;3252;52.540;13.290;2023-04-19T14:47:19;11.70;51.80
6439;DHT22;3252;52.540;13.290;2023-04-19T14:49:23;11.50;52.10
6439;DHT22;3252;52.540;13.290;2023-04-19T14:51:25;11.40;52.50
6439;DHT22;3252;52.540;13.290;2023-04-19T14:53:28;11.20;53.20
6439;DHT22;3252;52.540;13.290;2023-04-19T14:55:30;11.10;54.60
6439;DHT22;3252;52.540;13.290;2023-04-19T14:57:33;11.10;56.30
6439;DHT22;3252;52.540;13.290;2023-04-19T14:59:36;11.10;57.40
6439;DHT22;3252;52.540;13.290;2023-04-19T15:01:38;11.00;58.60
6439;DHT22;3252;52.540;13.290;2023-04-19T15:03:41;10.70;64.90
6439;DHT22;3252;52.540;13.290;2023-04-19T15:05:45;10.60;70.80
6439;DHT22;3252;52.540;13.290;2023-04-19T15:07:47;10.30;82.20
6439;DHT22;3252;52.540;13.290;2023-04-19T15:09:49;10.10;90.00
6439;DHT22;3252;52.540;13.290;2023-04-19T15:11:52;9.90;93.70
6439;DHT22;3252;52.540;13.290;2023-04-19T15:13:54;9.60;94.70
6439;DHT22;3252;52.540;13.290;2023-04-19T15:15:56;9.60;95.10
6439;DHT22;3252;52.540;13.290;2023-04-19T15:17:59;9.50;95.70
6439;DHT22;3252;52.540;13.290;2023-04-19T15:20:01;9.30;97.70
6439;DHT22;3252;52.540;13.290;2023-04-19T15:22:07;8.90;99.80
6439;DHT22;3252;52.540;13.290;2023-04-19T15:24:09;8.60;99.90
6439;DHT22;3252;52.540;13.290;2023-04-19T15:26:12;8.30;99.90
6439;DHT22;3252;52.540;13.290;2023-04-19T15:28:14;7.60;99.90
6439;DHT22;3252;52.540;13.290;2023-04-19T15:30:17;7.30;99.90
6439;DHT22;3252;52.540;13.290;2023-04-19T15:32:19;7.00;99.90
6439;DHT22;3252;52.540;13.290;2023-04-19T15:34:21;6.90;99.90
6439;DHT22;3252;52.540;13.290;2023-04-19T15:36:26;6.80;99.90
6439;DHT22;3252;52.540;13.290;2023-04-19T15:38:30;6.70;99.90
6439;DHT22;3252;52.540;13.290;2023-04-19T15:40:33;6.60;99.90
6439;DHT22;3252;52.540;13.290;2023-04-19T15:42:38;6.50;99.90
6439;DHT22;3252;52.540;13.290;2023-04-19T15:44:40;6.40;99.90
6439;DHT22;3252;52.540;13.290;2023-04-19T15:46:43;6.40;99.90
6439;DHT22;3252;52.540;13.290;2023-04-19T15:48:45;6.40;99.90
6439;DHT22;3252;52.540;13.290;2023-04-19T15:50:48;6.40;99.90
6439;DHT22;3252;52.540;13.290;2023-04-19T15:52:50;6.50;99.90
6439;DHT22;3252;52.540;13.290;2023-04-19T15:54:54;6.40;99.90
6439;DHT22;3252;52.540;13.290;2023-04-19T15:56:56;6.40;99.90
6439;DHT22;3252;52.540;13.290;2023-04-19T15:58:59;6.40;99.90
6439;DHT22;3252;52.540;13.290;2023-04-19T16:01:02;6.40;99.90
6439;DHT22;3252;52.540;13.290;2023-04-19T16:03:04;6.40;99.90
6439;DHT22;3252;52.540;13.290;2023-04-19T16:05:07;6.40;99.90
6439;DHT22;3252;52.540;13.290;2023-04-19T16:07:09;6.40;99.90
6439;DHT22;3252;52.540;13.290;2023-04-19T16:09:12;6.40;99.90
6439;DHT22;3252;52.540;13.290;2023-04-19T16:11:15;6.50;99.90
6439;DHT22;3252;52.540;13.290;2023-04-19T16:13:18;6.50;99.90
6439;DHT22;3252;52.540;13.290;2023-04-19T16:15:20;6.60;99.90
6439;DHT22;3252;52.540;13.290;2023-04-19T16:17:22;6.60;99.90
6439;DHT22;3252;52.540;13.290;2023-04-19T16:19:25;6.70;99.90
6439;DHT22;3252;52.540;13.290;2023-04-19T16:21:27;6.70;99.90
6439;DHT22;3252;52.540;13.290;2023-04-19T16:23:29;6.70;99.90
6439;DHT22;3252;52.540;13.290;2023-04-19T16:25:32;6.70;99.90
6439;DHT22;3252;52.540;13.290;2023-04-19T16:27:39;6.70;99.90
6439;DHT22;3252;52.540;13.290;2023-04-19T16:29:41;6.70;99.90
6439;DHT22;3252;52.540;13.290;2023-04-19T16:31:43;6.80;99.90
6439;DHT22;3252;52.540;13.290;2023-04-19T16:33:45;6.80;99.90
6439;DHT22;3252;52.540;13.290;2023-04-19T16:35:47;6.90;99.90
6439;DHT22;3252;52.540;13.290;2023-04-19T16:37:49;7.00;99.90
6439;DHT22;3252;52.540;13.290;2023-04-19T16:39:52;7.00;99.90
6439;DHT22;3252;52.540;13.290;2023-04-19T16:41:54;6.90;99.90
6439;DHT22;3252;52.540;13.290;2023-04-19T16:43:58;7.00;99.90
6439;DHT22;3252;52.540;13.290;2023-04-19T16:46:00;7.00;99.90
6439;DHT22;3252;52.540;13.290;2023-04-19T16:48:03;7.00;99.90
6439;DHT22;3252;52.540;13.290;2023-04-19T16:50:06;7.00;99.90
6439;DHT22;3252;52.540;13.290;2023-04-19T16:52:09;7.10;99.90
6439;DHT22;3252;52.540;13.290;2023-04-19T16:54:13;6.90;99.90
6439;DHT22;3252;52.540;13.290;2023-04-19T16:56:15;6.90;99.90
6439;DHT22;3252;52.540;13.290;2023-04-19T16:58:19;7.00;99.90
6439;DHT22;3252;52.540;13.290;2023-04-19T17:00:23;6.90;99.90
6439;DHT22;3252;52.540;13.290;2023-04-19T17:02:26;6.90;99.90
6439;DHT22;3252;52.540;13.290;2023-04-19T17:04:28;6.80;99.90
6439;DHT22;3252;52.540;13.290;2023-04-19T17:06:32;6.90;99.90
6439;DHT22;3252;52.540;13.290;2023-04-19T17:08:34;6.90;99.90
6439;DHT22;3252;52.540;13.290;2023-04-19T17:10:38;6.90;99.90
6439;DHT22;3252;52.540;13.290;2023-04-19T17:12:40;6.80;99.90
6439;DHT22;3252;52.540;13.290;2023-04-19T17:14:43;6.70;99.90
6439;DHT22;3252;52.540;13.290;2023-04-19T17:16:47;6.70;99.90
6439;DHT22;3252;52.540;13.290;2023-04-19T17:18:49;6.70;99.90
6439;DHT22;3252;52.540;13.290;2023-04-19T17:20:52;6.70;99.90
6439;DHT22;3252;52.540;13.290;2023-04-19T17:22:55;6.70;99.90
6439;DHT22;3252;52.540;13.290;2023-04-19T17:24:57;6.70;99.90
6439;DHT22;3252;52.540;13.290;2023-04-19T17:27:00;6.60;99.90
6439;DHT22;3252;52.540;13.290;2023-04-19T17:29:03;6.60;99.90
6439;DHT22;3252;52.540;13.290;2023-04-19T17:31:05;6.50;99.90
6439;DHT22;3252;52.540;13.290;2023-04-19T17:33:09;6.40;99.90
6439;DHT22;3252;52.540;13.290;2023-04-19T17:35:11;6.30;99.90
6439;DHT22;3252;52.540;13.290;2023-04-19T17:37:13;6.30;99.90
6439;DHT22;3252;52.540;13.290;2023-04-19T17:39:17;6.30;99.90
6439;DHT22;3252;52.540;13.290;2023-04-19T17:41:19;6.10;99.90
6439;DHT22;3252;52.540;13.290;2023-04-19T17:43:22;6.10;99.90
6439;DHT22;3252;52.540;13.290;2023-04-19T17:45:25;6.10;99.90
6439;DHT22;3252;52.540;13.290;2023-04-19T17:47:27;6.10;99.90
6439;DHT22;3252;52.540;13.290;2023-04-19T17:49:31;6.10;99.90
6439;DHT22;3252;52.540;13.290;2023-04-19T17:51:33;6.20;99.90
6439;DHT22;3252;52.540;13.290;2023-04-19T17:53:35;6.20;99.90
6439;DHT22;3252;52.540;13.290;2023-04-19T17:55:50;6.20;99.90
6439;DHT22;3252;52.540;13.290;2023-04-19T17:57:58;6.20;99.90
6439;DHT22;3252;52.540;13.290;2023-04-19T18:00:05;6.30;99.90
6439;DHT22;3252;52.540;13.290;2023-04-19T18:02:10;6.20;99.90
6439;DHT22;3252;52.540;13.290;2023-04-19T18:04:16;6.20;99.90
6439;DHT22;3252;52.540;13.290;2023-04-19T18:06:21;6.30;99.90
6439;DHT22;3252;52.540;13.290;2023-04-19T18:08:30;6.30;99.90
6439;DHT22;3252;52.540;13.290;2023-04-19T18:10:54;6.40;99.90
6439;DHT22;3252;52.540;13.290;2023-04-19T18:12:59;6.30;99.90
6439;DHT22;3252;52.540;13.290;2023-04-19T18:15:01;6.30;99.90
6439;DHT22;3252;52.540;13.290;2023-04-19T18:17:12;6.30;99.90
6439;DHT22;3252;52.540;13.290;2023-04-19T18:19:22;6.30;99.90
6439;DHT22;3252;52.540;13.290;2023-04-19T18:21:26;6.40;99.90
6439;DHT22;3252;52.540;13.290;2023-04-19T18:23:31;6.40;99.90
6439;DHT22;3252;52.540;13.290;2023-04-19T18:25:35;6.40;99.90
6439;DHT22;3252;52.540;13.290;2023-04-19T18:27:40;6.40;99.90
6439;DHT22;3252;52.540;13.290;2023-04-19T18:29:43;6.40;99.90
6439;DHT22;3252;52.540;13.290;2023-04-19T18:31:46;6.40;99.90
6439;DHT22;3252;52.540;13.290;2023-04-19T18:33:49;6.40;99.90
6439;DHT22;3252;52.540;13.290;2023-04-19T18:35:52;6.40;99.90
6439;DHT22;3252;52.540;13.290;2023-04-19T18:38:09;6.40;99.90
6439;DHT22;3252;52.540;13.290;2023-04-19T18:40:17;6.40;99.90
6439;DHT22;3252;52.540;13.290;2023-04-19T18:42:38;6.40;99.90
6439;DHT22;3252;52.540;13.290;2023-04-19T18:44:48;6.40;99.90
6439;DHT22;3252;52.540;13.290;2023-04-19T18:46:54;6.40;99.90
6439;DHT22;3252;52.540;13.290;2023-04-19T18:49:02;6.30;99.90
6439;DHT22;3252;52.540;13.290;2023-04-19T18:51:07;6.40;99.90
6439;DHT22;3252;52.540;13.290;2023-04-19T18:53:13;6.40;99.90
6439;DHT22;3252;52.540;13.290;2023-04-19T18:55:18;6.40;99.90
6439;DHT22;3252;52.540;13.290;2023-04-19T18:57:27;6.40;99.90
6439;DHT22;3252;52.540;13.290;2023-04-19T18:59:30;6.40;99.90
6439;DHT22;3252;52.540;13.290;2023-04-19T19:01:38;6.40;99.90
6439;DHT22;3252;52.540;13.290;2023-04-19T19:03:42;6.30;99.90
6439;DHT22;3252;52.540;13.290;2023-04-19T19:05:49;6.30;99.90
6439;DHT22;3252;52.540;13.290;2023-04-19T19:07:57;6.40;99.90
6439;DHT22;3252;52.540;13.290;2023-04-19T19:10:08;6.40;99.90
6439;DHT22;3252;52.540;13.290;2023-04-19T19:12:11;6.40;99.90
6439;DHT22;3252;52.540;13.290;2023-04-19T19:14:14;6.40;99.90
6439;DHT22;3252;52.540;13.290;2023-04-19T19:16:22;6.50;99.90
6439;DHT22;3252;52.540;13.290;2023-04-19T19:18:28;6.40;99.90